createdAt,value
2023-05-14T00:01:59.145Z,98704.53
2023-05-14T00:04:01.124Z,98701.53
2023-05-14T00:06:03.199Z,98704.00
2023-05-14T00:08:07.708Z,98702.63
2023-05-14T00:10:09.750Z,98703.47
2023-05-14T00:12:11.257Z,98696.88
2023-05-14T00:14:13.045Z,98696.31
2023-05-14T00:16:17.561Z,98697.69
2023-05-14T00:18:19.226Z,98698.53
2023-05-14T00:20:20.989Z,98691.13
2023-05-14T00:22:22.691Z,98687.28
2023-05-14T00:24:24.851Z,98693.03
2023-05-14T00:26:30.865Z,98688.06
2023-05-14T00:28:32.402Z,98690.03
2023-05-14T00:30:37.193Z,98688.34
2023-05-14T00:32:38.746Z,98684.25
2023-05-14T00:34:42.960Z,98680.41
2023-05-14T00:36:44.569Z,98683.41
2023-05-14T00:38:46.311Z,98684.53
2023-05-14T00:40:51.688Z,98680.41
2023-05-14T00:42:53.819Z,98679.03
2023-05-14T00:44:55.529Z,98677.63
2023-05-14T00:47:06.533Z,98683.38
2023-05-14T00:49:08.452Z,98683.34
2023-05-14T00:51:10.117Z,98685.28
2023-05-14T00:53:12.187Z,98692.41
2023-05-14T00:55:16.571Z,98685.53
2023-05-14T00:57:18.999Z,98693.47
2023-05-14T00:59:23.141Z,98690.19
2023-05-14T01:01:24.751Z,98696.75
2023-05-14T01:03:29.493Z,98698.94
2023-05-14T01:05:41.191Z,98693.19
2023-05-14T01:07:54.064Z,98688.25
2023-05-14T01:10:04.002Z,98693.44
2023-05-14T01:12:19.284Z,98690.69
2023-05-14T01:14:28.260Z,98693.16
2023-05-14T01:16:33.349Z,98687.94
2023-05-14T01:18:35.447Z,98693.94
2023-05-14T01:20:40.950Z,98694.22
2023-05-14T01:22:42.914Z,98688.75
2023-05-14T01:24:47.979Z,98686.53
2023-05-14T01:26:49.868Z,98691.19
2023-05-14T01:28:52.947Z,98687.91
2023-05-14T01:31:01.234Z,98684.31
2023-05-14T01:33:06.758Z,98681.59
2023-05-14T01:35:10.911Z,98684.31
2023-05-14T01:37:13.632Z,98681.59
2023-05-14T01:39:15.492Z,98687.91
2023-05-14T01:41:19.585Z,98682.41
2023-05-14T01:43:23.049Z,98686.28
2023-05-14T01:45:24.779Z,98676.09
2023-05-14T01:47:26.459Z,98682.41
2023-05-14T01:49:28.455Z,98677.78
2023-05-14T01:51:30.357Z,98679.69
2023-05-14T01:53:34.152Z,98683.53
2023-05-14T01:55:35.656Z,98685.16
2023-05-14T01:57:37.302Z,98681.59
2023-05-14T01:59:38.810Z,98681.06
2023-05-14T02:01:40.389Z,98677.50
2023-05-14T02:03:42.058Z,98679.44
2023-05-14T02:05:43.578Z,98675.31
2023-05-14T02:07:45.201Z,98676.13
2023-05-14T02:09:49.563Z,98672.59
2023-05-14T02:11:51.135Z,98673.13
2023-05-14T02:13:52.724Z,98678.88
2023-05-14T02:15:54.523Z,98678.63
2023-05-14T02:17:56.319Z,98674.50
2023-05-14T02:19:58.282Z,98672.84
2023-05-14T02:22:01.295Z,98671.78
2023-05-14T02:24:02.835Z,98672.59
2023-05-14T02:26:05.142Z,98662.72
2023-05-14T02:28:09.719Z,98664.94
2023-05-14T02:30:11.852Z,98665.75
2023-05-14T02:32:14.322Z,98667.13
2023-05-14T02:34:16.253Z,98670.44
2023-05-14T02:36:18.033Z,98674.00
2023-05-14T02:38:20.364Z,98662.75
2023-05-14T02:40:24.113Z,98667.94
2023-05-14T02:42:27.088Z,98660.56
2023-05-14T02:44:32.387Z,98655.63
2023-05-14T02:46:35.072Z,98658.94
2023-05-14T02:48:36.813Z,98649.59
2023-05-14T02:50:38.492Z,98650.97
2023-05-14T02:52:40.050Z,98651.53
2023-05-14T02:54:41.546Z,98658.13
2023-05-14T02:56:43.182Z,98646.88
2023-05-14T02:58:44.736Z,98650.16
2023-05-14T03:00:46.346Z,98649.91
2023-05-14T03:02:48.637Z,98647.44
2023-05-14T03:04:50.844Z,98648.00
2023-05-14T03:06:52.354Z,98652.38
2023-05-14T03:08:54.133Z,98645.81
2023-05-14T03:10:58.905Z,98652.94
2023-05-14T03:13:00.545Z,98655.41
2023-05-14T03:15:02.216Z,98653.50
2023-05-14T03:17:04.134Z,98655.13
2023-05-14T03:19:05.804Z,98656.78
2023-05-14T03:21:09.641Z,98661.97
2023-05-14T03:23:11.281Z,98657.31
2023-05-14T03:25:12.835Z,98654.56
2023-05-14T03:27:14.287Z,98648.03
2023-05-14T03:29:18.022Z,98648.59
2023-05-14T03:31:19.827Z,98651.03
2023-05-14T03:33:21.730Z,98642.56
2023-05-14T03:35:25.628Z,98644.19
2023-05-14T03:37:30.183Z,98649.66
2023-05-14T03:39:31.795Z,98650.25
2023-05-14T03:41:33.916Z,98648.03
2023-05-14T03:43:35.543Z,98651.88
2023-05-14T03:45:40.472Z,98660.66
2023-05-14T03:47:42.880Z,98649.13
2023-05-14T03:49:44.596Z,98657.09
2023-05-14T03:51:48.174Z,98652.72
2023-05-14T03:53:51.140Z,98648.06
2023-05-14T03:55:52.623Z,98650.78
2023-05-14T03:57:54.229Z,98653.25
2023-05-14T03:59:55.987Z,98655.75
2023-05-14T04:01:57.750Z,98644.75
2023-05-14T04:04:00.802Z,98655.16
2023-05-14T04:06:02.605Z,98658.47
2023-05-14T04:08:04.258Z,98652.16
2023-05-14T04:10:09.506Z,98655.75
2023-05-14T04:12:13.477Z,98652.72
2023-05-14T04:14:15.774Z,98658.47
2023-05-14T04:16:18.609Z,98660.66
2023-05-14T04:18:20.201Z,98656.81
2023-05-14T04:20:23.782Z,98655.44
2023-05-14T04:22:25.312Z,98660.66
2023-05-14T04:24:27.068Z,98656.81
2023-05-14T04:26:28.870Z,98651.03
2023-05-14T04:28:32.964Z,98653.53
2023-05-14T04:30:34.774Z,98658.72
2023-05-14T04:32:36.683Z,98654.06
2023-05-14T04:34:38.246Z,98653.78
2023-05-14T04:36:40.208Z,98655.16
2023-05-14T04:38:42.167Z,98654.06
2023-05-14T04:40:43.709Z,98659.00
2023-05-14T04:42:45.362Z,98646.13
2023-05-14T04:44:49.923Z,98648.59
2023-05-14T04:46:51.774Z,98653.53
2023-05-14T04:48:53.262Z,98653.53
2023-05-14T04:50:54.840Z,98648.56
2023-05-14T04:52:56.274Z,98652.41
2023-05-14T04:54:57.822Z,98652.41
2023-05-14T04:57:03.255Z,98650.22
2023-05-14T04:59:04.868Z,98646.38
2023-05-14T05:01:06.459Z,98649.94
2023-05-14T05:03:08.794Z,98648.56
2023-05-14T05:05:10.408Z,98648.56
2023-05-14T05:07:12.847Z,98649.94
2023-05-14T05:09:17.591Z,98641.41
2023-05-14T05:11:19.408Z,98639.22
2023-05-14T05:13:21.309Z,98644.97
2023-05-14T05:15:25.237Z,98643.34
2023-05-14T05:17:29.544Z,98646.31
2023-05-14T05:19:42.410Z,98645.47
2023-05-14T05:21:45.936Z,98641.09
2023-05-14T05:23:47.438Z,98644.91
2023-05-14T05:25:50.340Z,98635.84
2023-05-14T05:27:52.075Z,98635.81
2023-05-14T05:29:53.744Z,98634.19
2023-05-14T05:31:55.796Z,98629.50
2023-05-14T05:34:00.719Z,98628.69
2023-05-14T05:36:02.849Z,98634.69
2023-05-14T05:38:04.519Z,98630.81
2023-05-14T05:40:07.220Z,98638.75
2023-05-14T05:42:11.659Z,98626.34
2023-05-14T05:44:13.291Z,98624.09
2023-05-14T05:46:15.261Z,98626.25
2023-05-14T05:48:17.067Z,98623.22
2023-05-14T05:50:19.976Z,98624.25
2023-05-14T05:52:21.752Z,98629.69
2023-05-14T05:54:25.406Z,98629.09
2023-05-14T05:56:27.098Z,98630.94
2023-05-14T05:58:28.865Z,98627.00
2023-05-14T06:00:31.178Z,98625.81
2023-05-14T06:02:32.941Z,98624.66
2023-05-14T06:04:34.549Z,98623.97
2023-05-14T06:06:40.390Z,98631.00
2023-05-14T06:08:42.129Z,98623.22
2023-05-14T06:10:44.212Z,98628.59
2023-05-14T06:12:47.477Z,98628.50
2023-05-14T06:14:48.926Z,98631.94
2023-05-14T06:16:51.811Z,98637.88
2023-05-14T06:18:54.528Z,98627.81
2023-05-14T06:20:57.022Z,98635.06
2023-05-14T06:22:58.496Z,98636.78
2023-05-14T06:25:00.072Z,98636.28
2023-05-14T06:27:01.520Z,98634.97
2023-05-14T06:29:03.031Z,98623.69
2023-05-14T06:31:04.558Z,98620.41
2023-05-14T06:33:06.110Z,98618.22
2023-05-14T06:35:08.346Z,98620.72
2023-05-14T06:37:12.103Z,98619.09
2023-05-14T06:39:13.950Z,98616.66
2023-05-14T06:41:15.741Z,98621.19
2023-05-14T06:43:17.295Z,98625.69
2023-05-14T06:45:18.828Z,98620.28
2023-05-14T06:47:20.430Z,98621.75
2023-05-14T06:49:22.263Z,98613.25
2023-05-14T06:51:26.624Z,98618.56
2023-05-14T06:53:28.360Z,98626.34
2023-05-14T06:55:32.761Z,98620.28
2023-05-14T06:57:34.665Z,98619.75
2023-05-14T06:59:38.220Z,98612.03
2023-05-14T07:01:40.702Z,98622.03
2023-05-14T07:03:42.474Z,98619.06
2023-05-14T07:05:46.006Z,98618.00
2023-05-14T07:07:47.486Z,98614.50
2023-05-14T07:09:49.082Z,98618.44
2023-05-14T07:11:50.685Z,98608.28
2023-05-14T07:13:52.304Z,98618.56
2023-05-14T07:15:55.774Z,98611.44
2023-05-14T07:17:57.309Z,98609.88
2023-05-14T07:19:59.235Z,98606.97
2023-05-14T07:22:01.310Z,98598.22
2023-05-14T07:24:02.828Z,98604.16
2023-05-14T07:26:08.333Z,98603.69
2023-05-14T07:28:09.826Z,98603.22
2023-05-14T07:30:11.699Z,98594.16
2023-05-14T07:32:15.458Z,98605.59
2023-05-14T07:34:20.519Z,98600.38
2023-05-14T07:36:22.417Z,98592.09
2023-05-14T07:38:24.065Z,98591.00
2023-05-14T07:40:25.902Z,98599.00
2023-05-14T07:42:35.872Z,98595.44
2023-05-14T07:44:38.805Z,98593.53
2023-05-14T07:46:41.006Z,98596.63
2023-05-14T07:48:42.518Z,98592.22
2023-05-14T07:50:44.336Z,98599.59
2023-05-14T07:52:45.980Z,98590.94
2023-05-14T07:54:48.375Z,98596.16
2023-05-14T07:56:52.069Z,98594.19
2023-05-14T07:58:53.517Z,98594.53
2023-05-14T08:00:56.398Z,98586.53
2023-05-14T08:02:58.385Z,98586.84
2023-05-14T08:05:00.242Z,98588.31
2023-05-14T08:07:02.115Z,98586.53
2023-05-14T08:09:05.376Z,98585.22
2023-05-14T08:11:06.993Z,98583.44
2023-05-14T08:13:08.511Z,98590.75
2023-05-14T08:15:10.510Z,98589.78
2023-05-14T08:17:12.248Z,98583.19
2023-05-14T08:19:15.646Z,98582.50
2023-05-14T08:21:17.569Z,98581.53
2023-05-14T08:23:19.197Z,98576.97
2023-05-14T08:25:20.699Z,98579.88
2023-05-14T08:27:22.936Z,98581.16
2023-05-14T08:29:25.802Z,98576.91
2023-05-14T08:31:27.309Z,98582.28
2023-05-14T08:33:29.056Z,98580.47
2023-05-14T08:35:30.514Z,98579.47
2023-05-14T08:37:32.076Z,98585.69
2023-05-14T08:39:33.589Z,98583.84
2023-05-14T08:41:35.631Z,98572.59
2023-05-14T08:44:04.266Z,98575.50
2023-05-14T08:46:06.688Z,98570.94
2023-05-14T08:48:13.359Z,98577.09
2023-05-14T08:50:15.394Z,98579.69
2023-05-14T08:52:19.300Z,98573.97
2023-05-14T08:54:23.754Z,98585.66
2023-05-14T08:56:26.227Z,98575.22
2023-05-14T08:58:29.022Z,98573.06
2023-05-14T09:00:30.797Z,98573.69
2023-05-14T09:02:40.162Z,98572.38
2023-05-14T09:04:42.526Z,98571.88
2023-05-14T09:06:46.569Z,98566.97
2023-05-14T09:08:48.209Z,98567.63
2023-05-14T09:10:52.725Z,98571.03
2023-05-14T09:12:54.394Z,98566.63
2023-05-14T09:14:56.191Z,98566.13
2023-05-14T09:16:57.890Z,98573.94
2023-05-14T09:18:59.853Z,98573.13
2023-05-14T09:21:02.838Z,98571.47
2023-05-14T09:23:04.435Z,98567.91
2023-05-14T09:25:09.435Z,98570.16
2023-05-14T09:27:19.770Z,98568.53
2023-05-14T09:29:21.394Z,98570.47
2023-05-14T09:31:23.234Z,98560.22
2023-05-14T09:33:30.941Z,98570.81
2023-05-14T09:35:33.585Z,98566.06
2023-05-14T09:37:36.751Z,98570.00
2023-05-14T09:39:41.576Z,98565.56
2023-05-14T09:42:08.368Z,98560.66
2023-05-14T09:44:09.856Z,98559.84
2023-05-14T09:46:11.343Z,98560.66
2023-05-14T09:48:13.313Z,98555.13
2023-05-14T09:50:15.204Z,98554.31
2023-05-14T09:52:19.401Z,98555.63
2023-05-14T09:54:20.940Z,98547.34
2023-05-14T09:56:22.793Z,98545.88
2023-05-14T09:58:24.409Z,98538.88
2023-05-14T10:00:26.255Z,98536.59
2023-05-14T10:02:41.258Z,98536.78
2023-05-14T10:04:45.019Z,98531.41
2023-05-14T10:06:51.173Z,98530.78
2023-05-14T10:08:56.352Z,98530.94
2023-05-14T10:10:59.618Z,98527.25
2023-05-14T10:13:06.791Z,98525.78
2023-05-14T10:15:41.629Z,98521.22
2023-05-14T10:17:48.190Z,98516.69
2023-05-14T10:19:56.795Z,98522.44
2023-05-14T10:22:05.040Z,98518.22
2023-05-14T10:24:07.989Z,98528.66
2023-05-14T10:26:10.732Z,98518.06
2023-05-14T10:28:12.338Z,98514.16
2023-05-14T10:30:16.844Z,98514.66
2023-05-14T10:32:22.284Z,98510.44
2023-05-14T10:34:34.611Z,98509.28
2023-05-14T10:36:36.321Z,98505.03
2023-05-14T10:38:38.225Z,98509.94
2023-05-14T10:40:39.996Z,98507.03
2023-05-14T10:42:45.346Z,98502.16
2023-05-14T10:45:25.570Z,98506.72
2023-05-14T10:47:29.894Z,98500.72
2023-05-14T10:49:43.493Z,98499.41
2023-05-14T10:51:49.334Z,98503.66
2023-05-14T10:53:51.090Z,98492.72
2023-05-14T10:55:55.371Z,98494.53
2023-05-14T10:58:01.307Z,98501.06
2023-05-14T11:00:03.402Z,98500.41
2023-05-14T11:02:05.779Z,98485.09
2023-05-14T11:04:07.297Z,98492.75
2023-05-14T11:06:10.840Z,98480.50
2023-05-14T11:08:12.575Z,98482.97
2023-05-14T11:10:16.546Z,98472.34
2023-05-14T11:12:18.443Z,98481.19
2023-05-14T11:14:23.205Z,98477.28
2023-05-14T11:16:30.683Z,98476.13
2023-05-14T11:18:38.827Z,98474.16
2023-05-14T11:20:41.292Z,98473.03
2023-05-14T11:22:43.966Z,98464.72
2023-05-14T11:24:45.550Z,98468.28
2023-05-14T11:26:55.880Z,98465.50
2023-05-14T11:28:57.545Z,98465.50
2023-05-14T11:30:59.246Z,98463.88
2023-05-14T11:33:02.098Z,98459.94
2023-05-14T11:35:04.882Z,98464.72
2023-05-14T11:37:10.201Z,98459.94
2023-05-14T11:39:18.920Z,98454.75
2023-05-14T11:41:22.880Z,98456.38
2023-05-14T11:43:26.130Z,98460.47
2023-05-14T11:45:29.701Z,98460.47
2023-05-14T11:47:31.793Z,98452.97
2023-05-14T11:49:36.029Z,98448.19
2023-05-14T11:51:37.498Z,98444.78
2023-05-14T11:53:39.126Z,98447.56
2023-05-14T11:55:40.740Z,98442.81
2023-05-14T11:57:42.917Z,98444.47
2023-05-14T11:59:45.028Z,98450.03
2023-05-14T12:01:48.067Z,98440.53
2023-05-14T12:03:51.615Z,98440.22
2023-05-14T12:06:02.565Z,98445.44
2023-05-14T12:08:04.364Z,98439.53
2023-05-14T12:10:06.503Z,98436.44
2023-05-14T12:12:10.986Z,98437.75
2023-05-14T12:14:16.667Z,98427.13
2023-05-14T12:16:20.859Z,98426.78
2023-05-14T12:18:25.316Z,98423.69
2023-05-14T12:20:29.549Z,98422.22
2023-05-14T12:22:31.197Z,98419.91
2023-05-14T12:24:33.245Z,98417.63
2023-05-14T12:26:36.074Z,98409.78
2023-05-14T12:28:43.236Z,98409.13
2023-05-14T12:30:47.926Z,98406.50
2023-05-14T12:32:52.756Z,98400.78
2023-05-14T12:34:54.653Z,98397.00
2023-05-14T12:36:59.474Z,98403.66
2023-05-14T12:39:03.522Z,98402.34
2023-05-14T12:41:05.684Z,98391.84
2023-05-14T12:43:09.632Z,98398.88
2023-05-14T12:45:14.702Z,98394.78
2023-05-14T12:47:17.397Z,98393.78
2023-05-14T12:49:21.395Z,98384.44
2023-05-14T12:51:23.272Z,98382.28
2023-05-14T12:53:24.838Z,98384.53
2023-05-14T12:55:28.415Z,98378.94
2023-05-14T12:57:31.098Z,98376.06
2023-05-14T12:59:38.331Z,98369.63
2023-05-14T13:01:41.053Z,98364.69
2023-05-14T13:03:42.629Z,98361.03
2023-05-14T13:05:44.257Z,98361.19
2023-05-14T13:07:46.062Z,98354.28
2023-05-14T13:09:47.511Z,98364.06
2023-05-14T13:11:49.039Z,98360.25
2023-05-14T13:13:53.165Z,98348.47
2023-05-14T13:15:55.610Z,98356.91
2023-05-14T13:17:57.075Z,98349.53
2023-05-14T13:19:58.705Z,98347.69
2023-05-14T13:22:00.244Z,98348.66
2023-05-14T13:24:01.786Z,98333.34
2023-05-14T13:26:03.318Z,98333.59
2023-05-14T13:28:07.550Z,98334.81
2023-05-14T13:30:11.317Z,98336.00
2023-05-14T13:32:13.030Z,98342.78
2023-05-14T13:34:14.728Z,98341.66
2023-05-14T13:36:16.313Z,98342.69
2023-05-14T13:38:17.876Z,98336.22
2023-05-14T13:40:28.522Z,98335.16
2023-05-14T13:42:30.901Z,98336.91
2023-05-14T13:44:32.332Z,98338.19
2023-05-14T13:46:33.761Z,98341.47
2023-05-14T13:48:37.070Z,98338.31
2023-05-14T13:50:38.682Z,98335.16
2023-05-14T13:52:40.472Z,98324.00
2023-05-14T13:54:42.096Z,98331.22
2023-05-14T13:56:43.618Z,98330.09
2023-05-14T13:58:45.326Z,98332.50
2023-05-14T14:00:46.918Z,98329.72
2023-05-14T14:02:48.489Z,98320.22
2023-05-14T14:04:52.115Z,98318.56
2023-05-14T14:06:53.640Z,98323.78
2023-05-14T14:08:55.130Z,98319.03
2023-05-14T14:10:56.674Z,98319.03
2023-05-14T14:12:58.348Z,98312.63
2023-05-14T14:15:05.798Z,98314.63
2023-05-14T14:17:08.985Z,98309.38
2023-05-14T14:19:10.537Z,98309.75
2023-05-14T14:21:12.394Z,98308.94
2023-05-14T14:23:14.088Z,98308.00
2023-05-14T14:25:16.540Z,98302.75
2023-05-14T14:27:18.221Z,98294.75
2023-05-14T14:29:22.217Z,98298.56
2023-05-14T14:31:26.039Z,98290.13
2023-05-14T14:33:27.673Z,98277.69
2023-05-14T14:35:30.558Z,98282.31
2023-05-14T14:37:35.998Z,98282.22
2023-05-14T14:39:37.471Z,98281.63
2023-05-14T14:41:39.366Z,98275.13
2023-05-14T14:43:44.015Z,98279.31
2023-05-14T14:45:48.800Z,98267.56
2023-05-14T14:47:50.905Z,98275.31
2023-05-14T14:49:52.531Z,98271.59
2023-05-14T14:51:54.399Z,98264.28
2023-05-14T14:53:57.789Z,98261.72
2023-05-14T14:56:03.076Z,98255.19
2023-05-14T14:58:04.521Z,98255.09
2023-05-14T15:00:07.156Z,98254.97
2023-05-14T15:02:11.047Z,98250.06
2023-05-14T15:04:12.860Z,98253.56
2023-05-14T15:06:14.434Z,98250.66
2023-05-14T15:08:19.026Z,98249.38
2023-05-14T15:10:22.781Z,98251.22
2023-05-14T15:12:24.322Z,98258.28
2023-05-14T15:14:25.796Z,98256.19
2023-05-14T15:16:27.253Z,98252.44
2023-05-14T15:18:28.685Z,98256.72
2023-05-14T15:20:30.595Z,98258.59
2023-05-14T15:22:32.178Z,98249.31
2023-05-14T15:24:33.631Z,98251.59
2023-05-14T15:26:35.329Z,98252.31
2023-05-14T15:28:36.776Z,98247.88
2023-05-14T15:30:38.389Z,98247.06
2023-05-14T15:32:39.976Z,98242.19
2023-05-14T15:34:41.418Z,98242.19
2023-05-14T15:36:42.953Z,98246.13
2023-05-14T15:38:44.590Z,98243.66
2023-05-14T15:40:46.105Z,98243.66
2023-05-14T15:42:47.531Z,98249.22
2023-05-14T15:44:49.177Z,98245.97
2023-05-14T15:46:51.017Z,98241.56
2023-05-14T15:48:52.644Z,98239.94
2023-05-14T15:50:54.305Z,98238.66
2023-05-14T15:52:56.051Z,98243.41
2023-05-14T15:54:59.445Z,98240.63
2023-05-14T15:57:02.863Z,98231.81
2023-05-14T15:59:07.938Z,98242.94
2023-05-14T16:01:12.359Z,98230.06
2023-05-14T16:03:19.490Z,98235.94
2023-05-14T16:05:21.318Z,98231.88
2023-05-14T16:07:26.141Z,98233.38
2023-05-14T16:09:27.635Z,98234.53
2023-05-14T16:11:32.970Z,98221.31
2023-05-14T16:13:35.779Z,98225.59
2023-05-14T16:15:37.589Z,98224.78
2023-05-14T16:17:39.408Z,98223.13
2023-05-14T16:19:41.328Z,98221.84
2023-05-14T16:21:42.750Z,98227.75
2023-05-14T16:23:44.527Z,98228.13
2023-05-14T16:25:46.024Z,98216.16
2023-05-14T16:27:47.523Z,98235.94
2023-05-14T16:29:49.023Z,98232.38
2023-05-14T16:31:52.729Z,98229.94
2023-05-14T16:33:54.271Z,98227.97
2023-05-14T16:35:55.822Z,98231.09
2023-05-14T16:37:57.595Z,98229.81
2023-05-14T16:39:59.338Z,98226.06
2023-05-14T16:42:01.199Z,98231.63
2023-05-14T16:44:03.454Z,98234.41
2023-05-14T16:46:06.082Z,98235.38
2023-05-14T16:48:13.074Z,98234.88
2023-05-14T16:50:15.105Z,98231.63
2023-05-14T16:52:16.894Z,98231.97
2023-05-14T16:54:18.582Z,98227.91
2023-05-14T16:56:21.337Z,98220.72
2023-05-14T16:58:23.051Z,98221.88
2023-05-14T17:00:24.712Z,98226.63
2023-05-14T17:02:26.696Z,98219.78
2023-05-14T17:04:28.308Z,98220.91
2023-05-14T17:06:33.156Z,98212.94
2023-05-14T17:08:38.449Z,98220.09
2023-05-14T17:10:39.980Z,98211.75
2023-05-14T17:12:41.542Z,98216.63
2023-05-14T17:14:43.109Z,98217.47
2023-05-14T17:16:44.666Z,98213.53
2023-05-14T17:18:46.875Z,98222.66
2023-05-14T17:20:54.410Z,98222.34
2023-05-14T17:22:56.016Z,98214.81
2023-05-14T17:24:59.490Z,98212.84
2023-05-14T17:27:01.119Z,98212.38
2023-05-14T17:29:03.044Z,98215.63
2023-05-14T17:31:04.793Z,98212.84
2023-05-14T17:33:06.550Z,98217.59
2023-05-14T17:35:09.609Z,98210.41
2023-05-14T17:37:11.086Z,98219.56
2023-05-14T17:39:12.766Z,98209.59
2023-05-14T17:41:14.283Z,98219.88
2023-05-14T17:43:15.822Z,98217.47
2023-05-14T17:45:20.588Z,98219.78
2023-05-14T17:47:22.178Z,98218.94
2023-05-14T17:49:23.943Z,98226.00
2023-05-14T17:51:25.412Z,98224.72
2023-05-14T17:53:26.969Z,98215.91
2023-05-14T17:55:28.559Z,98216.22
2023-05-14T17:57:30.178Z,98222.50
2023-05-14T17:59:34.551Z,98221.53
2023-05-14T18:01:41.843Z,98219.41
2023-05-14T18:03:43.576Z,98223.19
2023-05-14T18:05:45.108Z,98215.84
2023-05-14T18:07:46.726Z,98226.50
2023-05-14T18:09:48.766Z,98227.16
2023-05-14T18:11:57.028Z,98230.50
2023-05-14T18:13:58.648Z,98229.50
2023-05-14T18:16:03.687Z,98231.81
2023-05-14T18:18:05.611Z,98230.88
2023-05-14T18:20:10.747Z,98230.72
2023-05-14T18:22:12.397Z,98233.69
2023-05-14T18:24:16.359Z,98230.63
2023-05-14T18:26:17.881Z,98233.25
2023-05-14T18:28:20.033Z,98235.38
2023-05-14T18:30:24.594Z,98236.41
2023-05-14T18:32:27.710Z,98235.28
2023-05-14T18:34:29.390Z,98239.72
2023-05-14T18:36:33.970Z,98243.94
2023-05-14T18:38:35.665Z,98244.59
2023-05-14T18:40:37.326Z,98240.88
2023-05-14T18:42:38.839Z,98252.63
2023-05-14T18:44:44.117Z,98251.50
2023-05-14T18:46:46.067Z,98254.47
2023-05-14T18:48:47.991Z,98238.34
2023-05-14T18:50:55.455Z,98245.19
2023-05-14T18:52:56.928Z,98243.72
2023-05-14T18:54:58.419Z,98244.72
2023-05-14T18:57:01.312Z,98254.03
2023-05-14T18:59:05.414Z,98250.59
2023-05-14T19:01:07.160Z,98248.81
2023-05-14T19:03:11.449Z,98251.75
2023-05-14T19:05:15.398Z,98256.34
2023-05-14T19:07:17.022Z,98259.75
2023-05-14T19:09:21.178Z,98268.25
2023-05-14T19:11:22.798Z,98266.75
2023-05-14T19:13:24.488Z,98269.19
2023-05-14T19:15:26.278Z,98268.53
2023-05-14T19:17:31.715Z,98277.47
2023-05-14T19:19:33.357Z,98279.94
2023-05-14T19:21:35.096Z,98283.03
2023-05-14T19:23:36.914Z,98283.19
2023-05-14T19:25:40.452Z,98277.47
2023-05-14T19:27:42.226Z,98280.38
2023-05-14T19:29:44.437Z,98283.81
2023-05-14T19:31:46.085Z,98288.38
2023-05-14T19:33:47.701Z,98298.13
2023-05-14T19:35:51.965Z,98292.41
2023-05-14T19:37:53.503Z,98296.97
2023-05-14T19:39:55.152Z,98293.53
2023-05-14T19:41:56.719Z,98293.34
2023-05-14T19:43:58.228Z,98297.56
2023-05-14T19:46:01.449Z,98289.75
2023-05-14T19:48:05.568Z,98290.06
2023-05-14T19:50:10.161Z,98295.41
2023-05-14T19:52:11.739Z,98294.09
2023-05-14T19:54:14.419Z,98289.19
2023-05-14T19:56:18.455Z,98283.78
2023-05-14T19:58:19.970Z,98296.66
2023-05-14T20:00:22.744Z,98294.03
2023-05-14T20:02:24.673Z,98294.97
2023-05-14T20:04:28.053Z,98297.06
2023-05-14T20:06:29.701Z,98294.09
2023-05-14T20:08:31.146Z,98282.88
2023-05-14T20:10:32.822Z,98290.16
2023-05-14T20:12:40.697Z,98285.59
2023-05-14T20:14:42.199Z,98289.31
2023-05-14T20:16:43.832Z,98293.03
2023-05-14T20:18:57.910Z,98294.47
2023-05-14T20:20:59.837Z,98292.63
2023-05-14T20:23:01.322Z,98292.28
2023-05-14T20:25:04.944Z,98288.19
2023-05-14T20:27:07.217Z,98287.22
2023-05-14T20:29:10.952Z,98284.25
2023-05-14T20:31:12.538Z,98286.00
2023-05-14T20:33:15.059Z,98276.50
2023-05-14T20:35:16.802Z,98284.59
2023-05-14T20:37:19.874Z,98276.44
2023-05-14T20:39:21.440Z,98280.13
2023-05-14T20:41:22.930Z,98281.09
2023-05-14T20:43:26.552Z,98281.22
2023-05-14T20:45:29.404Z,98273.03
2023-05-14T20:47:35.207Z,98269.56
2023-05-14T20:49:36.887Z,98276.84
2023-05-14T20:51:38.353Z,98271.97
2023-05-14T20:53:40.763Z,98270.94
2023-05-14T20:55:44.669Z,98266.34
2023-05-14T20:57:46.267Z,98273.09
2023-05-14T20:59:51.016Z,98269.03
2023-05-14T21:01:52.515Z,98265.25
2023-05-14T21:03:54.234Z,98263.13
2023-05-14T21:05:56.829Z,98274.28
2023-05-14T21:07:58.487Z,98275.22
2023-05-14T21:09:59.918Z,98273.88
2023-05-14T21:12:01.757Z,98278.91
2023-05-14T21:14:03.463Z,98277.88
2023-05-14T21:16:05.820Z,98274.91
2023-05-14T21:18:07.402Z,98275.84
2023-05-14T21:20:11.890Z,98277.56
2023-05-14T21:22:13.930Z,98282.56
2023-05-14T21:24:16.755Z,98280.94
2023-05-14T21:26:18.873Z,98280.44
2023-05-14T21:28:22.076Z,98280.53
2023-05-14T21:30:23.745Z,98282.78
2023-05-14T21:32:27.915Z,98279.81
2023-05-14T21:34:32.379Z,98275.72
2023-05-14T21:36:33.911Z,98290.16
2023-05-14T21:38:36.046Z,98273.06
2023-05-14T21:40:37.769Z,98272.88
2023-05-14T21:42:42.654Z,98272.38
2023-05-14T21:44:44.743Z,98266.03
2023-05-14T21:46:47.317Z,98258.66
2023-05-14T21:48:48.972Z,98259.31
2023-05-14T21:50:50.602Z,98259.59
2023-05-14T21:52:52.109Z,98258.25
2023-05-14T21:54:53.761Z,98258.06
2023-05-14T21:56:55.587Z,98268.56
2023-05-14T21:58:57.183Z,98264.19
2023-05-14T22:00:58.762Z,98266.44
2023-05-14T22:03:00.389Z,98266.22
2023-05-14T22:05:02.303Z,98266.53
2023-05-14T22:07:04.008Z,98262.47
2023-05-14T22:09:05.420Z,98261.13
2023-05-14T22:11:06.847Z,98261.13
2023-05-14T22:13:08.314Z,98254.28
2023-05-14T22:15:10.983Z,98251.81
2023-05-14T22:17:12.774Z,98254.06
2023-05-14T22:19:16.411Z,98243.63
2023-05-14T22:21:18.190Z,98254.16
2023-05-14T22:23:19.977Z,98252.50
2023-05-14T22:25:21.898Z,98249.25
2023-05-14T22:27:23.381Z,98247.63
2023-05-14T22:29:25.104Z,98243.53
2023-05-14T22:31:27.047Z,98249.34
2023-05-14T22:33:28.776Z,98247.72
2023-05-14T22:35:30.369Z,98257.41
2023-05-14T22:37:34.695Z,98250.56
2023-05-14T22:39:36.217Z,98247.25
2023-05-14T22:41:37.770Z,98245.91
2023-05-14T22:43:39.252Z,98245.13
2023-05-14T22:45:41.011Z,98249.31
2023-05-14T22:47:42.631Z,98241.63
2023-05-14T22:49:44.397Z,98252.66
2023-05-14T22:51:45.939Z,98242.53
2023-05-14T22:53:50.349Z,98240.91
2023-05-14T22:55:53.719Z,98236.00
2023-05-14T22:57:55.272Z,98225.56
2023-05-14T22:59:56.797Z,98230.56
2023-05-14T23:01:58.377Z,98225.66
2023-05-14T23:03:59.954Z,98221.28
2023-05-14T23:06:01.488Z,98218.03
2023-05-14T23:08:03.674Z,98213.63
2023-05-14T23:10:05.616Z,98221.38
2023-05-14T23:12:07.579Z,98224.41
2023-05-14T23:14:09.162Z,98211.56
2023-05-14T23:16:11.118Z,98214.31
2023-05-14T23:18:12.695Z,98210.53
2023-05-14T23:20:14.420Z,98211.63
2023-05-14T23:22:15.987Z,98207.56
2023-05-14T23:24:17.531Z,98207.34
2023-05-14T23:26:19.123Z,98212.31
2023-05-14T23:28:20.756Z,98207.94
2023-05-14T23:30:24.694Z,98200.78
2023-05-14T23:32:27.024Z,98204.97
2023-05-14T23:34:28.701Z,98204.16
2023-05-14T23:36:32.952Z,98206.38
2023-05-14T23:38:34.725Z,98204.78
2023-05-14T23:40:36.308Z,98195.19
2023-05-14T23:42:37.897Z,98198.22
2023-05-14T23:44:39.448Z,98190.28
2023-05-14T23:46:41.217Z,98187.78
2023-05-14T23:48:42.992Z,98190.03
2023-05-14T23:50:44.672Z,98186.78
2023-05-14T23:52:46.305Z,98189.84
2023-05-14T23:54:48.263Z,98181.88
2023-05-14T23:56:49.900Z,98180.25
2023-05-14T23:58:51.838Z,98169.50
